Archival Weather

South Haven Area Rgnl

South Haven, Michigan (KLWA)

Report from: Tuesday, September 19, 2023 8:35 PM EDT
Current time: Friday, June 21, 2024 7:42 PM EDT

Current weather – Weather history – Daily summaries
Weather forecast

Temperature16.2°C (61.2°F)
Dew point13.8°C (56.8°F)
Winds 5 kts (2.6 m/s, 5.8 mph) East (100°)
Visibility10 mi. (16.1 km)
Clouds Ceiling: Overcast 3,900 ft. (1,189 m)
Altimeter30.04 in.Hg (1017 mB)
Relative humidity86 %
Density altitude225 ft. (69 m)
Remarks Fully automated report
Automated weather observing station with precipitation discriminator
Flight conditions Visual Meteorological Conditions
Raw dataKLWA 200035Z AUTO 10005KT 10SM OVC039 16/14 A3004 RMK AO2 T01620138
An error has occurred. This application may no longer respond until reloaded. Reload 🗙